sensor_id;sensor_type;location;lat;lon;timestamp;pressure;altitude;pressure_sealevel;temperature;humidity
51099;BME280;37146;48.210;16.234;2023-04-05T00:01:55;99406.41;;;-1.55;63.96
51099;BME280;37146;48.210;16.234;2023-04-05T00:04:20;99406.34;;;-1.64;63.41
51099;BME280;37146;48.210;16.234;2023-04-05T00:06:49;99404.59;;;-1.68;63.43
51099;BME280;37146;48.210;16.234;2023-04-05T00:09:18;99396.72;;;-1.67;63.37
51099;BME280;37146;48.210;16.234;2023-04-05T00:11:44;99392.34;;;-1.63;63.71
51099;BME280;37146;48.210;16.234;2023-04-05T00:14:10;99391.44;;;-1.76;64.35
51099;BME280;37146;48.210;16.234;2023-04-05T00:16:35;99387.13;;;-1.66;65.20
51099;BME280;37146;48.210;16.234;2023-04-05T00:19:00;99394.09;;;-1.73;64.91
51099;BME280;37146;48.210;16.234;2023-04-05T00:21:26;99392.28;;;-1.85;64.22
51099;BME280;37146;48.210;16.234;2023-04-05T00:23:52;99398.38;;;-1.86;64.54
51099;BME280;37146;48.210;16.234;2023-04-05T00:26:18;99401.00;;;-1.86;64.87
51099;BME280;37146;48.210;16.234;2023-04-05T00:28:43;99398.41;;;-1.81;64.71
51099;BME280;37146;48.210;16.234;2023-04-05T00:31:08;99390.66;;;-1.58;64.63
51099;BME280;37146;48.210;16.234;2023-04-05T00:33:34;99393.19;;;-1.75;64.38
51099;BME280;37146;48.210;16.234;2023-04-05T00:38:34;99381.84;;;-1.74;64.02
51099;BME280;37146;48.210;16.234;2023-04-05T00:40:59;99389.72;;;-1.69;64.30
51099;BME280;37146;48.210;16.234;2023-04-05T00:43:25;99394.09;;;-1.72;65.20
51099;BME280;37146;48.210;16.234;2023-04-05T00:45:50;99396.69;;;-1.72;64.18
51099;BME280;37146;48.210;16.234;2023-04-05T00:48:15;99391.47;;;-1.72;64.52
51099;BME280;37146;48.210;16.234;2023-04-05T00:50:41;99389.69;;;-1.83;65.17
51099;BME280;37146;48.210;16.234;2023-04-05T00:53:07;99391.41;;;-1.85;64.58
51099;BME280;37146;48.210;16.234;2023-04-05T00:55:33;99395.66;;;-2.05;65.45
51099;BME280;37146;48.210;16.234;2023-04-05T00:57:58;99394.88;;;-1.85;65.76
51099;BME280;37146;48.210;16.234;2023-04-05T01:00:23;99392.28;;;-1.82;65.44
51099;BME280;37146;48.210;16.234;2023-04-05T01:02:54;99390.47;;;-1.95;65.33
51099;BME280;37146;48.210;16.234;2023-04-05T01:10:54;99385.13;;;-2.12;65.97
51099;BME280;37146;48.210;16.234;2023-04-05T01:13:21;99390.47;;;-1.98;65.45
51099;BME280;37146;48.210;16.234;2023-04-05T01:15:46;99387.81;;;-2.05;65.11
51099;BME280;37146;48.210;16.234;2023-04-05T01:18:12;99387.81;;;-2.03;65.82
51099;BME280;37146;48.210;16.234;2023-04-05T01:20:39;99382.63;;;-1.92;65.16
51099;BME280;37146;48.210;16.234;2023-04-05T01:23:20;99379.13;;;-1.90;64.73
51099;BME280;37146;48.210;16.234;2023-04-05T01:26:03;99380.00;;;-1.92;65.33
51099;BME280;37146;48.210;16.234;2023-04-05T01:28:39;99378.25;;;-1.99;64.87
51099;BME280;37146;48.210;16.234;2023-04-05T01:36:15;99370.34;;;-2.04;65.29
51099;BME280;37146;48.210;16.234;2023-04-05T01:38:41;99375.53;;;-2.10;65.53
51099;BME280;37146;48.210;16.234;2023-04-05T01:41:08;99373.84;;;-2.05;65.51
51099;BME280;37146;48.210;16.234;2023-04-05T01:43:34;99376.38;;;-2.21;66.40
51099;BME280;37146;48.210;16.234;2023-04-05T01:45:59;99373.75;;;-2.21;65.88
51099;BME280;37146;48.210;16.234;2023-04-05T01:48:24;99379.84;;;-2.20;66.93
51099;BME280;37146;48.210;16.234;2023-04-05T01:50:49;99373.69;;;-2.28;66.40
51099;BME280;37146;48.210;16.234;2023-04-05T01:53:15;99372.81;;;-2.30;66.43
51099;BME280;37146;48.210;16.234;2023-04-05T01:55:40;99379.00;;;-2.18;66.73
51099;BME280;37146;48.210;16.234;2023-04-05T01:58:05;99378.94;;;-2.30;66.64
51099;BME280;37146;48.210;16.234;2023-04-05T02:00:30;99375.41;;;-2.35;66.94
51099;BME280;37146;48.210;16.234;2023-04-05T02:02:56;99378.00;;;-2.37;66.66
51099;BME280;37146;48.210;16.234;2023-04-05T02:05:21;99376.19;;;-2.47;67.49
51099;BME280;37146;48.210;16.234;2023-04-05T02:07:47;99375.34;;;-2.46;67.54
51099;BME280;37146;48.210;16.234;2023-04-05T02:10:13;99379.81;;;-2.33;67.15
51099;BME280;37146;48.210;16.234;2023-04-05T02:12:38;99371.94;;;-2.33;67.37
51099;BME280;37146;48.210;16.234;2023-04-05T02:15:03;99379.75;;;-2.40;66.91
51099;BME280;37146;48.210;16.234;2023-04-05T02:17:29;99375.34;;;-2.46;67.34
51099;BME280;37146;48.210;16.234;2023-04-05T02:19:58;99370.09;;;-2.44;67.46
51099;BME280;37146;48.210;16.234;2023-04-05T02:22:26;99371.00;;;-2.44;67.57
51099;BME280;37146;48.210;16.234;2023-04-05T02:24:51;99373.66;;;-2.33;68.47
51099;BME280;37146;48.210;16.234;2023-04-05T02:27:17;99366.69;;;-2.33;67.51
51099;BME280;37146;48.210;16.234;2023-04-05T02:29:42;99371.88;;;-2.40;67.41
51099;BME280;37146;48.210;16.234;2023-04-05T02:32:07;99364.94;;;-2.34;67.67
51099;BME280;37146;48.210;16.234;2023-04-05T02:34:32;99367.53;;;-2.37;67.15
51099;BME280;37146;48.210;16.234;2023-04-05T02:36:58;99365.72;;;-2.45;68.17
51099;BME280;37146;48.210;16.234;2023-04-05T02:39:23;99365.75;;;-2.44;67.93
51099;BME280;37146;48.210;16.234;2023-04-05T02:41:48;99355.28;;;-2.44;68.21
51099;BME280;37146;48.210;16.234;2023-04-05T02:44:14;99356.19;;;-2.34;67.61
51099;BME280;37146;48.210;16.234;2023-04-05T02:46:39;99357.91;;;-2.44;68.06
51099;BME280;37146;48.210;16.234;2023-04-05T02:49:05;99357.06;;;-2.37;67.39
51099;BME280;37146;48.210;16.234;2023-04-05T02:51:30;99358.81;;;-2.37;67.69
51099;BME280;37146;48.210;16.234;2023-04-05T02:53:58;99356.13;;;-2.43;68.26
51099;BME280;37146;48.210;16.234;2023-04-05T02:56:23;99355.31;;;-2.38;68.36
51099;BME280;37146;48.210;16.234;2023-04-05T02:58:48;99364.81;;;-2.54;68.92
51099;BME280;37146;48.210;16.234;2023-04-05T03:01:14;99352.63;;;-2.45;67.94
51099;BME280;37146;48.210;16.234;2023-04-05T03:03:41;99346.50;;;-2.49;68.16
51099;BME280;37146;48.210;16.234;2023-04-05T03:06:07;99354.41;;;-2.41;68.20
51099;BME280;37146;48.210;16.234;2023-04-05T03:08:35;99353.53;;;-2.42;68.12
51099;BME280;37146;48.210;16.234;2023-04-05T03:11:03;99359.56;;;-2.54;69.13
51099;BME280;37146;48.210;16.234;2023-04-05T03:13:28;99356.97;;;-2.51;67.66
51099;BME280;37146;48.210;16.234;2023-04-05T03:15:53;99353.50;;;-2.50;68.80
51099;BME280;37146;48.210;16.234;2023-04-05T03:18:19;99354.38;;;-2.46;68.34
51099;BME280;37146;48.210;16.234;2023-04-05T03:20:45;99354.34;;;-2.47;68.76
51099;BME280;37146;48.210;16.234;2023-04-05T03:23:11;99354.31;;;-2.54;68.35
51099;BME280;37146;48.210;16.234;2023-04-05T03:25:36;99359.59;;;-2.49;68.35
51099;BME280;37146;48.210;16.234;2023-04-05T03:28:04;99350.72;;;-2.70;68.96
51099;BME280;37146;48.210;16.234;2023-04-05T03:30:36;99349.91;;;-2.64;68.75
51099;BME280;37146;48.210;16.234;2023-04-05T03:33:01;99351.66;;;-2.61;69.36
51099;BME280;37146;48.210;16.234;2023-04-05T03:35:27;99344.63;;;-2.69;68.49
51099;BME280;37146;48.210;16.234;2023-04-05T03:37:53;99344.66;;;-2.66;68.83
51099;BME280;37146;48.210;16.234;2023-04-05T03:40:18;99348.13;;;-2.67;69.20
51099;BME280;37146;48.210;16.234;2023-04-05T03:42:43;99350.69;;;-2.76;69.40
51099;BME280;37146;48.210;16.234;2023-04-05T03:45:09;99354.22;;;-2.71;69.23
51099;BME280;37146;48.210;16.234;2023-04-05T03:47:34;99351.69;;;-2.60;69.76
51099;BME280;37146;48.210;16.234;2023-04-05T03:50:00;99355.09;;;-2.69;69.16
51099;BME280;37146;48.210;16.234;2023-04-05T03:52:26;99352.50;;;-2.66;68.64
51099;BME280;37146;48.210;16.234;2023-04-05T03:54:52;99363.94;;;-2.54;68.85
51099;BME280;37146;48.210;16.234;2023-04-05T03:57:17;99360.31;;;-2.72;69.04
51099;BME280;37146;48.210;16.234;2023-04-05T03:59:42;99354.13;;;-2.82;69.71
51099;BME280;37146;48.210;16.234;2023-04-05T04:02:07;99354.19;;;-2.75;68.98
51099;BME280;37146;48.210;16.234;2023-04-05T04:04:32;99352.41;;;-2.75;68.74
51099;BME280;37146;48.210;16.234;2023-04-05T04:06:58;99355.03;;;-2.78;69.29
51099;BME280;37146;48.210;16.234;2023-04-05T04:09:23;99356.72;;;-2.83;69.35
51099;BME280;37146;48.210;16.234;2023-04-05T04:11:48;99349.72;;;-2.84;69.49
51099;BME280;37146;48.210;16.234;2023-04-05T04:14:14;99342.78;;;-2.81;69.04
51099;BME280;37146;48.210;16.234;2023-04-05T04:16:39;99348.94;;;-2.77;69.91
51099;BME280;37146;48.210;16.234;2023-04-05T04:19:04;99347.25;;;-2.70;68.68
51099;BME280;37146;48.210;16.234;2023-04-05T04:21:29;99352.38;;;-2.83;68.94
51099;BME280;37146;48.210;16.234;2023-04-05T04:23:56;99347.16;;;-2.83;69.23
51099;BME280;37146;48.210;16.234;2023-04-05T04:26:24;99352.31;;;-2.89;69.93
51099;BME280;37146;48.210;16.234;2023-04-05T04:28:53;99348.84;;;-2.88;69.39
51099;BME280;37146;48.210;16.234;2023-04-05T04:31:19;99358.47;;;-2.82;69.44
51099;BME280;37146;48.210;16.234;2023-04-05T04:33:45;99340.16;;;-2.82;69.23
51099;BME280;37146;48.210;16.234;2023-04-05T04:36:12;99348.88;;;-2.83;69.83
51099;BME280;37146;48.210;16.234;2023-04-05T04:38:38;99348.06;;;-2.73;70.01
51099;BME280;37146;48.210;16.234;2023-04-05T04:41:06;99350.63;;;-2.82;68.97
51099;BME280;37146;48.210;16.234;2023-04-05T04:43:32;99356.72;;;-2.83;69.55
51099;BME280;37146;48.210;16.234;2023-04-05T04:46:01;99352.34;;;-2.84;69.17
51099;BME280;37146;48.210;16.234;2023-04-05T04:48:30;99346.25;;;-2.83;69.12
51099;BME280;37146;48.210;16.234;2023-04-05T04:50:57;99352.38;;;-2.83;69.23
51099;BME280;37146;48.210;16.234;2023-04-05T04:53:22;99353.22;;;-2.88;69.35
51099;BME280;37146;48.210;16.234;2023-04-05T04:55:47;99353.97;;;-3.02;69.69
51099;BME280;37146;48.210;16.234;2023-04-05T04:58:14;99354.13;;;-2.82;69.07
51099;BME280;37146;48.210;16.234;2023-04-05T05:00:40;99350.53;;;-2.98;69.17
51099;BME280;37146;48.210;16.234;2023-04-05T05:03:08;99354.00;;;-2.99;69.41
51099;BME280;37146;48.210;16.234;2023-04-05T05:05:40;99351.53;;;-2.82;68.63
51099;BME280;37146;48.210;16.234;2023-04-05T05:08:06;99353.41;;;-2.62;68.75
51099;BME280;37146;48.210;16.234;2023-04-05T05:10:31;99355.13;;;-2.66;68.51
51099;BME280;37146;48.210;16.234;2023-04-05T05:12:56;99350.66;;;-2.77;68.18
51099;BME280;37146;48.210;16.234;2023-04-05T05:15:21;99349.84;;;-2.72;68.90
51099;BME280;37146;48.210;16.234;2023-04-05T05:17:47;99353.31;;;-2.76;68.60
51099;BME280;37146;48.210;16.234;2023-04-05T05:20:16;99351.56;;;-2.74;68.56
51099;BME280;37146;48.210;16.234;2023-04-05T05:22:43;99352.59;;;-2.52;67.94
51099;BME280;37146;48.210;16.234;2023-04-05T05:25:10;99350.72;;;-2.71;68.75
51099;BME280;37146;48.210;16.234;2023-04-05T05:27:36;99353.38;;;-2.67;69.26
51099;BME280;37146;48.210;16.234;2023-04-05T05:30:01;99351.56;;;-2.77;69.35
51099;BME280;37146;48.210;16.234;2023-04-05T05:32:27;99355.13;;;-2.66;68.83
51099;BME280;37146;48.210;16.234;2023-04-05T05:34:52;99351.72;;;-2.54;68.66
51099;BME280;37146;48.210;16.234;2023-04-05T05:37:17;99358.75;;;-2.42;68.79
51099;BME280;37146;48.210;16.234;2023-04-05T05:39:42;99351.78;;;-2.43;68.57
51099;BME280;37146;48.210;16.234;2023-04-05T05:42:10;99354.47;;;-2.32;68.60
51099;BME280;37146;48.210;16.234;2023-04-05T05:44:36;99351.97;;;-2.12;67.01
51099;BME280;37146;48.210;16.234;2023-04-05T05:47:01;99345.00;;;-2.04;67.56
51099;BME280;37146;48.210;16.234;2023-04-05T05:49:27;99348.44;;;-2.17;67.09
51099;BME280;37146;48.210;16.234;2023-04-05T05:51:52;99348.47;;;-2.08;66.48
51099;BME280;37146;48.210;16.234;2023-04-05T05:54:17;99350.28;;;-1.94;66.34
51099;BME280;37146;48.210;16.234;2023-04-05T05:56:43;99349.44;;;-1.87;66.02
51099;BME280;37146;48.210;16.234;2023-04-05T05:59:08;99347.78;;;-1.71;66.59
51099;BME280;37146;48.210;16.234;2023-04-05T06:01:34;99345.16;;;-1.60;65.23
51099;BME280;37146;48.210;16.234;2023-04-05T06:04:06;99341.69;;;-1.56;64.99
51099;BME280;37146;48.210;16.234;2023-04-05T06:06:31;99343.50;;;-1.33;64.07
51099;BME280;37146;48.210;16.234;2023-04-05T06:08:57;99345.25;;;-1.26;63.54
51099;BME280;37146;48.210;16.234;2023-04-05T06:11:23;99337.38;;;-1.25;62.46
51099;BME280;37146;48.210;16.234;2023-04-05T06:13:49;99338.25;;;-1.15;62.28
51099;BME280;37146;48.210;16.234;2023-04-05T06:16:16;99346.16;;;-0.98;62.24
51099;BME280;37146;48.210;16.234;2023-04-05T06:18:42;99333.03;;;-0.88;61.67
51099;BME280;37146;48.210;16.234;2023-04-05T06:21:07;99334.75;;;-0.81;61.54
51099;BME280;37146;48.210;16.234;2023-04-05T06:23:32;99332.13;;;-0.58;61.06
51099;BME280;37146;48.210;16.234;2023-04-05T06:25:58;99337.34;;;-0.44;60.21
51099;BME280;37146;48.210;16.234;2023-04-05T06:28:23;99339.06;;;-0.32;59.59
51099;BME280;37146;48.210;16.234;2023-04-05T06:30:48;99339.09;;;-0.38;59.50
51099;BME280;37146;48.210;16.234;2023-04-05T06:33:13;99340.00;;;-0.45;59.13
51099;BME280;37146;48.210;16.234;2023-04-05T06:35:38;99331.19;;;-0.32;58.65
51099;BME280;37146;48.210;16.234;2023-04-05T06:38:04;99344.19;;;0.14;59.25
51099;BME280;37146;48.210;16.234;2023-04-05T06:40:29;99338.94;;;0.16;58.47
51099;BME280;37146;48.210;16.234;2023-04-05T06:42:54;99338.88;;;0.30;58.28
51099;BME280;37146;48.210;16.234;2023-04-05T06:45:20;99348.41;;;0.50;57.38
51099;BME280;37146;48.210;16.234;2023-04-05T06:47:45;99343.09;;;0.60;57.83
51099;BME280;37146;48.210;16.234;2023-04-05T06:50:10;99351.09;;;0.39;56.57
51099;BME280;37146;48.210;16.234;2023-04-05T06:52:36;99348.47;;;0.43;56.21
51099;BME280;37146;48.210;16.234;2023-04-05T06:55:01;99351.13;;;0.36;57.75
51099;BME280;37146;48.210;16.234;2023-04-05T06:57:27;99350.28;;;0.29;57.29
51099;BME280;37146;48.210;16.234;2023-04-05T06:59:55;99349.41;;;0.30;57.21
51099;BME280;37146;48.210;16.234;2023-04-05T07:02:20;99360.78;;;0.34;57.90
51099;BME280;37146;48.210;16.234;2023-04-05T07:04:46;99362.56;;;0.24;58.02
51099;BME280;37146;48.210;16.234;2023-04-05T07:07:12;99357.25;;;0.36;58.28
51099;BME280;37146;48.210;16.234;2023-04-05T07:09:37;99354.72;;;0.18;57.49
51099;BME280;37146;48.210;16.234;2023-04-05T07:12:03;99368.72;;;0.21;57.20
51099;BME280;37146;48.210;16.234;2023-04-05T07:14:29;99369.56;;;0.28;57.90
51099;BME280;37146;48.210;16.234;2023-04-05T07:16:54;99363.44;;;0.29;57.87
51099;BME280;37146;48.210;16.234;2023-04-05T07:19:20;99363.34;;;0.48;57.37
51099;BME280;37146;48.210;16.234;2023-04-05T07:21:45;99359.78;;;0.58;56.93
51099;BME280;37146;48.210;16.234;2023-04-05T07:24:10;99358.03;;;0.55;57.50
51099;BME280;37146;48.210;16.234;2023-04-05T07:26:35;99351.84;;;0.63;57.93
51099;BME280;37146;48.210;16.234;2023-04-05T07:29:02;99358.81;;;0.71;57.82
51099;BME280;37146;48.210;16.234;2023-04-05T07:31:28;99348.19;;;0.87;56.12
51099;BME280;37146;48.210;16.234;2023-04-05T07:33:53;99360.41;;;0.97;56.68
51099;BME280;37146;48.210;16.234;2023-04-05T07:36:18;99357.66;;;1.13;55.64
51099;BME280;37146;48.210;16.234;2023-04-05T07:38:43;99355.06;;;1.10;56.23
51099;BME280;37146;48.210;16.234;2023-04-05T07:41:09;99357.47;;;1.34;56.65
51099;BME280;37146;48.210;16.234;2023-04-05T07:43:35;99358.09;;;1.64;54.42
51099;BME280;37146;48.210;16.234;2023-04-05T07:46:01;99357.13;;;1.73;54.07
51099;BME280;37146;48.210;16.234;2023-04-05T07:48:27;99348.88;;;2.06;53.77
51099;BME280;37146;48.210;16.234;2023-04-05T07:50:52;99347.09;;;2.08;53.37
51099;BME280;37146;48.210;16.234;2023-04-05T07:53:18;99344.97;;;2.38;53.51
51099;BME280;37146;48.210;16.234;2023-04-05T07:55:43;99341.66;;;2.86;51.78
51099;BME280;37146;48.210;16.234;2023-04-05T07:58:08;99336.97;;;3.05;50.51
51099;BME280;37146;48.210;16.234;2023-04-05T08:00:34;99337.34;;;3.35;49.15
51099;BME280;37146;48.210;16.234;2023-04-05T08:03:01;99329.84;;;3.60;49.27
51099;BME280;37146;48.210;16.234;2023-04-05T08:05:26;99328.72;;;3.74;48.92
51099;BME280;37146;48.210;16.234;2023-04-05T08:07:51;99332.56;;;4.04;49.61
51099;BME280;37146;48.210;16.234;2023-04-05T08:10:18;99329.63;;;4.18;48.66
51099;BME280;37146;48.210;16.234;2023-04-05T08:12:43;99316.88;;;4.37;47.80
51099;BME280;37146;48.210;16.234;2023-04-05T08:15:09;99322.78;;;4.89;48.28
51099;BME280;37146;48.210;16.234;2023-04-05T08:17:34;99322.75;;;4.91;46.75
51099;BME280;37146;48.210;16.234;2023-04-05T08:20:00;99326.03;;;5.37;47.35
51099;BME280;37146;48.210;16.234;2023-04-05T08:22:28;99315.63;;;4.93;44.65
51099;BME280;37146;48.210;16.234;2023-04-05T08:24:53;99310.75;;;5.47;45.25
51099;BME280;37146;48.210;16.234;2023-04-05T08:27:18;99308.66;;;5.25;45.12
51099;BME280;37146;48.210;16.234;2023-04-05T08:29:44;99316.56;;;6.27;42.85
51099;BME280;37146;48.210;16.234;2023-04-05T08:32:09;99307.59;;;6.61;42.77
51099;BME280;37146;48.210;16.234;2023-04-05T08:34:34;99319.47;;;6.18;44.02
51099;BME280;37146;48.210;16.234;2023-04-05T08:36:59;99314.84;;;5.60;43.96
51099;BME280;37146;48.210;16.234;2023-04-05T08:39:25;99305.41;;;5.81;43.93
51099;BME280;37146;48.210;16.234;2023-04-05T08:41:59;99295.00;;;6.67;43.49
51099;BME280;37146;48.210;16.234;2023-04-05T08:44:27;99293.47;;;6.88;42.19
51099;BME280;37146;48.210;16.234;2023-04-05T08:46:54;99295.22;;;7.42;40.94
51099;BME280;37146;48.210;16.234;2023-04-05T08:49:20;99295.72;;;7.79;39.98
51099;BME280;37146;48.210;16.234;2023-04-05T08:51:45;99296.56;;;7.29;40.64
51099;BME280;37146;48.210;16.234;2023-04-05T08:54:12;99298.56;;;7.22;40.87
51099;BME280;37146;48.210;16.234;2023-04-05T08:56:38;99284.34;;;8.71;38.92
51099;BME280;37146;48.210;16.234;2023-04-05T08:59:06;99281.81;;;7.19;40.25
51099;BME280;37146;48.210;16.234;2023-04-05T09:01:32;99290.66;;;7.19;41.87
51099;BME280;37146;48.210;16.234;2023-04-05T09:03:59;99291.09;;;8.10;39.52
51099;BME280;37146;48.210;16.234;2023-04-05T09:06:25;99289.63;;;8.01;39.05
51099;BME280;37146;48.210;16.234;2023-04-05T09:08:52;99284.38;;;8.93;39.36
51099;BME280;37146;48.210;16.234;2023-04-05T09:11:17;99276.69;;;8.38;38.62
51099;BME280;37146;48.210;16.234;2023-04-05T09:13:44;99273.38;;;8.78;37.93
51099;BME280;37146;48.210;16.234;2023-04-05T09:16:09;99279.41;;;9.26;37.71
51099;BME280;37146;48.210;16.234;2023-04-05T09:18:34;99267.03;;;8.11;38.76
51099;BME280;37146;48.210;16.234;2023-04-05T09:21:03;99273.34;;;9.01;37.39
51099;BME280;37146;48.210;16.234;2023-04-05T09:23:29;99270.13;;;9.97;36.85
51099;BME280;37146;48.210;16.234;2023-04-05T09:25:55;99267.13;;;9.43;37.34
51099;BME280;37146;48.210;16.234;2023-04-05T09:28:20;99266.13;;;8.60;37.23
51099;BME280;37146;48.210;16.234;2023-04-05T09:30:45;99257.03;;;11.06;35.61
51099;BME280;37146;48.210;16.234;2023-04-05T09:33:12;99252.03;;;8.78;37.12
51099;BME280;37146;48.210;16.234;2023-04-05T09:35:39;99259.00;;;9.25;36.88
51099;BME280;37146;48.210;16.234;2023-04-05T09:38:05;99252.28;;;9.58;35.94
51099;BME280;37146;48.210;16.234;2023-04-05T09:43:05;99254.06;;;7.27;39.08
51099;BME280;37146;48.210;16.234;2023-04-05T09:45:30;99261.06;;;9.19;37.74
51099;BME280;37146;48.210;16.234;2023-04-05T09:48:02;99249.94;;;8.17;38.61
51099;BME280;37146;48.210;16.234;2023-04-05T09:50:27;99254.22;;;7.48;39.32
51099;BME280;37146;48.210;16.234;2023-04-05T09:55:31;99237.72;;;9.65;35.36
51099;BME280;37146;48.210;16.234;2023-04-05T09:57:57;99240.53;;;11.33;32.92
51099;BME280;37146;48.210;16.234;2023-04-05T10:00:22;99231.31;;;11.56;33.52
51099;BME280;37146;48.210;16.234;2023-04-05T10:02:51;99218.09;;;11.86;31.17
51099;BME280;37146;48.210;16.234;2023-04-05T10:05:16;99221.41;;;12.57;32.14
51099;BME280;37146;48.210;16.234;2023-04-05T10:07:42;99219.34;;;13.84;29.35
51099;BME280;37146;48.210;16.234;2023-04-05T10:10:08;99220.91;;;14.03;28.92
51099;BME280;37146;48.210;16.234;2023-04-05T10:12:33;99216.72;;;12.61;30.83
51099;BME280;37146;48.210;16.234;2023-04-05T10:15:01;99224.59;;;9.40;35.57
51099;BME280;37146;48.210;16.234;2023-04-05T10:17:27;99222.19;;;8.69;36.69
51099;BME280;37146;48.210;16.234;2023-04-05T10:20:13;99225.47;;;7.58;38.92
51099;BME280;37146;48.210;16.234;2023-04-05T10:27:50;99225.50;;;6.79;40.77
51099;BME280;37146;48.210;16.234;2023-04-05T10:30:17;99224.00;;;6.13;42.14
51099;BME280;37146;48.210;16.234;2023-04-05T10:32:46;99228.09;;;6.80;41.88
51099;BME280;37146;48.210;16.234;2023-04-05T10:35:15;99226.31;;;7.08;40.42
51099;BME280;37146;48.210;16.234;2023-04-05T10:40:07;99224.78;;;7.01;41.20
51099;BME280;37146;48.210;16.234;2023-04-05T10:42:40;99227.03;;;6.86;40.62
51099;BME280;37146;48.210;16.234;2023-04-05T10:45:06;99218.22;;;5.99;41.93
51099;BME280;37146;48.210;16.234;2023-04-05T10:47:36;99225.81;;;6.70;41.86
51099;BME280;37146;48.210;16.234;2023-04-05T10:50:03;99211.53;;;6.17;40.92
51099;BME280;37146;48.210;16.234;2023-04-05T10:52:28;99213.00;;;6.54;41.02
51099;BME280;37146;48.210;16.234;2023-04-05T10:54:53;99217.06;;;6.93;41.76
51099;BME280;37146;48.210;16.234;2023-04-05T10:57:21;99207.94;;;7.00;41.25
51099;BME280;37146;48.210;16.234;2023-04-05T10:59:47;99199.38;;;7.19;40.11
51099;BME280;37146;48.210;16.234;2023-04-05T11:02:13;99204.19;;;7.07;40.23
51099;BME280;37146;48.210;16.234;2023-04-05T11:04:39;99198.53;;;7.42;39.39
51099;BME280;37146;48.210;16.234;2023-04-05T11:07:15;99187.53;;;7.77;39.48
51099;BME280;37146;48.210;16.234;2023-04-05T11:20:28;99175.06;;;7.53;39.55
51099;BME280;37146;48.210;16.234;2023-04-05T11:23:03;99182.03;;;7.81;38.44
51099;BME280;37146;48.210;16.234;2023-04-05T11:25:28;99184.88;;;7.27;41.36
51099;BME280;37146;48.210;16.234;2023-04-05T11:28:00;99183.31;;;8.63;37.36
51099;BME280;37146;48.210;16.234;2023-04-05T11:33:09;99171.94;;;10.02;33.10
51099;BME280;37146;48.210;16.234;2023-04-05T11:35:34;99168.78;;;11.22;31.39
51099;BME280;37146;48.210;16.234;2023-04-05T11:40:32;99143.91;;;9.73;32.75
51099;BME280;37146;48.210;16.234;2023-04-05T11:43:01;99148.22;;;9.75;35.43
51099;BME280;37146;48.210;16.234;2023-04-05T11:45:28;99164.06;;;8.99;35.80
51099;BME280;37146;48.210;16.234;2023-04-05T11:47:53;99163.63;;;7.99;36.11
51099;BME280;37146;48.210;16.234;2023-04-05T11:50:19;99168.00;;;8.00;37.85
51099;BME280;37146;48.210;16.234;2023-04-05T11:52:44;99169.06;;;8.42;37.22
51099;BME280;37146;48.210;16.234;2023-04-05T11:55:10;99157.84;;;11.09;33.03
51099;BME280;37146;48.210;16.234;2023-04-05T11:57:35;99152.19;;;12.94;30.76
51099;BME280;37146;48.210;16.234;2023-04-05T12:00:02;99150.31;;;13.99;28.64
51099;BME280;37146;48.210;16.234;2023-04-05T12:02:27;99152.59;;;11.92;31.82
51099;BME280;37146;48.210;16.234;2023-04-05T12:04:58;99164.13;;;9.18;35.72
51099;BME280;37146;48.210;16.234;2023-04-05T12:07:24;99152.19;;;9.86;33.90
51099;BME280;37146;48.210;16.234;2023-04-05T12:10:08;99150.63;;;10.39;34.22
51099;BME280;37146;48.210;16.234;2023-04-05T12:12:40;99137.81;;;10.46;34.20
51099;BME280;37146;48.210;16.234;2023-04-05T12:15:07;99141.16;;;10.13;34.90
51099;BME280;37146;48.210;16.234;2023-04-05T12:18:09;99133.38;;;9.09;35.32
51099;BME280;37146;48.210;16.234;2023-04-05T12:20:24;99142.16;;;8.70;35.53
51099;BME280;37146;48.210;16.234;2023-04-05T12:22:53;99143.50;;;8.80;35.86
51099;BME280;37146;48.210;16.234;2023-04-05T12:25:19;99140.28;;;8.28;35.15
51099;BME280;37146;48.210;16.234;2023-04-05T12:27:45;99137.81;;;7.77;37.07
51099;BME280;37146;48.210;16.234;2023-04-05T12:35:31;99123.78;;;8.40;37.24
51099;BME280;37146;48.210;16.234;2023-04-05T12:38:02;99123.81;;;8.62;36.35
51099;BME280;37146;48.210;16.234;2023-04-05T12:40:29;99122.16;;;8.60;37.04
51099;BME280;37146;48.210;16.234;2023-04-05T12:43:00;99115.84;;;7.94;37.14
51099;BME280;37146;48.210;16.234;2023-04-05T12:45:26;99109.41;;;8.00;36.27
51099;BME280;37146;48.210;16.234;2023-04-05T12:50:17;99112.91;;;7.78;38.00
51099;BME280;37146;48.210;16.234;2023-04-05T12:52:56;99115.34;;;7.84;37.46
51099;BME280;37146;48.210;16.234;2023-04-05T12:55:22;99115.03;;;7.46;37.00
51099;BME280;37146;48.210;16.234;2023-04-05T12:57:49;99112.97;;;7.29;37.42
51099;BME280;37146;48.210;16.234;2023-04-05T13:00:14;99111.78;;;7.12;38.23
51099;BME280;37146;48.210;16.234;2023-04-05T13:02:40;99114.59;;;7.08;38.64
51099;BME280;37146;48.210;16.234;2023-04-05T13:05:05;99115.31;;;7.13;38.64
51099;BME280;37146;48.210;16.234;2023-04-05T13:07:30;99108.97;;;7.41;38.77
51099;BME280;37146;48.210;16.234;2023-04-05T13:09:55;99124.47;;;7.30;38.55
51099;BME280;37146;48.210;16.234;2023-04-05T13:12:20;99109.19;;;7.11;38.17
51099;BME280;37146;48.210;16.234;2023-04-05T13:14:46;99114.75;;;7.05;39.60
51099;BME280;37146;48.210;16.234;2023-04-05T13:17:11;99115.53;;;7.56;37.77
51099;BME280;37146;48.210;16.234;2023-04-05T13:19:36;99119.41;;;7.71;37.88
51099;BME280;37146;48.210;16.234;2023-04-05T13:22:01;99120.63;;;7.62;38.81
51099;BME280;37146;48.210;16.234;2023-04-05T13:24:27;99112.19;;;7.97;39.16
51099;BME280;37146;48.210;16.234;2023-04-05T13:26:52;99120.06;;;8.44;37.57
51099;BME280;37146;48.210;16.234;2023-04-05T13:29:17;99121.06;;;7.97;37.34
51099;BME280;37146;48.210;16.234;2023-04-05T13:31:42;99118.94;;;8.28;37.94
51099;BME280;37146;48.210;16.234;2023-04-05T13:34:07;99121.47;;;7.86;37.65
51099;BME280;37146;48.210;16.234;2023-04-05T13:36:33;99111.53;;;7.68;37.35
51099;BME280;37146;48.210;16.234;2023-04-05T13:38:58;99113.69;;;7.58;38.48
51099;BME280;37146;48.210;16.234;2023-04-05T13:41:23;99106.63;;;7.57;39.28